• Join FlightAware (Why Join?)
  • Login
  • US Flag 
Gobble Gobble! 
05:39AM EST


 

Airport Tracker/Info


-or-


 

Live Flight TrackerFlight Track Log ✈ N24BE ✈ 25-Oct-2013 ✈ KJKA - KMBO

Flight Track Log - Related Links

Times and Time Zones

All times are in EDT time to prevent confusion due to time zone crossing. See the N24BE flight status page for this flight to view local times or setup timezone preferences in your user account.

Time Position Orientation Groundspeed Altitude Reporting Facility
EDT Latitude Longitude Course Direction KTS MPH feet Rate Location/Type
10:46AM 30.3281 -87.7078 334° Northwest 127 146 2,400  Level Jacksonville Center
10:46AM 30.3425 -87.7158 334° Northwest 126 145 2,900 900 Climbing Houston Center
10:47AM 30.3664 -87.7442 314° West 125 144 3,800 540 Climbing Houston Center
10:48AM 30.3883 -87.7733 311° West 122 140 4,100 120 Climbing Houston Center
10:49AM 30.4167 -87.8081 313° West 133 153 4,100  Level Houston Center
10:50AM 30.4478 -87.8442 315° West 147 169 4,100  Level Houston Center
10:51AM 30.4772 -87.8806 313° West 153 176 4,100  Level Houston Center
10:52AM 30.5119 -87.9244 313° West 153 176 4,100  Level Houston Center
10:53AM 30.5433 -87.9606 315° West 156 180 4,100  Level Houston Center
10:54AM 30.5733 -87.9942 316° Northwest 154 177 4,100  Level Houston Center
10:55AM 30.6067 -88.0275 319° Northwest 155 178 4,100  Level Houston Center
10:56AM 30.6378 -88.0608 317° Northwest 154 177 4,100  Level Houston Center
10:58AM 30.6694 -88.0947 317° Northwest 154 177 4,100  Level Houston Center
10:59AM 30.7069 -88.1356 317° Northwest 154 177 4,100  Level Houston Center
11:00AM 30.7383 -88.1708 316° Northwest 155 178 4,100  Level Houston Center
11:01AM 30.7694 -88.2050 317° Northwest 155 178 4,100  Level Houston Center
11:02AM 30.8000 -88.2397 316° Northwest 154 177 4,100  Level Houston Center
11:03AM 30.8347 -88.2658 327° Northwest 157 181 4,100  Level Houston Center
11:04AM 30.8767 -88.2764 348° North 155 178 4,100  Level Houston Center
11:05AM 30.9253 -88.2936 343° North 153 176 4,100  Level Houston Center
11:06AM 30.9658 -88.3089 342° North 152 175 4,100  Level Houston Center
11:07AM 31.0067 -88.3231 343° North 151 174 4,100  Level Houston Center
11:08AM 31.0472 -88.3386 342° North 151 174 4,100  Level Houston Center
11:09AM 31.0881 -88.3528 343° North 151 174 4,100  Level Houston Center
11:10AM 31.1283 -88.3672 343° North 151 174 4,100  Level Houston Center
11:11AM 31.1683 -88.3828 342° North 150 173 4,100  Level Houston Center
11:12AM 31.2083 -88.3944 346° North 149 171 4,100  Level Houston Center
11:13AM 31.2508 -88.4203 333° Northwest 149 171 4,100  Level Houston Center
11:14AM 31.2778 -88.4592 309° West 153 176 4,100  Level Houston Center
11:15AM 31.3039 -88.4972 309° West 153 176 4,100  Level Houston Center
11:16AM 31.3297 -88.5342 309° West 149 171 4,100  Level Houston Center
11:17AM 31.3456 -88.5575 308° West 150 173 4,100  Level Houston Center
11:17AM 31.3564 -88.5728 310° West 150 173 4,100  Level Houston Center
11:18AM 31.3889 -88.6178 310° West 151 174 4,100 -60 Level Houston Center
11:19AM 31.4172 -88.6539 313° West 151 174 4,000 -60 Descending Houston Center
11:20AM 31.4450 -88.6903 312° West 151 174 4,000  Level Houston Center
11:21AM 31.4722 -88.7278 310° West 150 173 4,000  Level Houston Center
11:22AM 31.5000 -88.7642 312° West 150 173 4,000  Level Houston Center
11:23AM 31.5281 -88.8003 312° West 150 173 4,000  Level Houston Center
11:24AM 31.5594 -88.8467 308° West 150 173 4,000  Level Houston Center
11:25AM 31.5831 -88.8839 307° West 147 169 4,000  Level Houston Center
11:27AM 31.6086 -88.9231 307° West 148 170 4,000  Level Houston Center
11:28AM 31.6347 -88.9617 308° West 150 173 4,000  Level Houston Center
11:29AM 31.6600 -89.0008 307° West 151 174 4,000  Level Houston Center
11:29AM 31.6814 -89.0311 310° West 151 174 4,000  Level Houston Center
11:30AM 31.7150 -89.0769 311° West 152 175 4,000  Level Houston Center
11:31AM 31.7419 -89.1158 309° West 154 177 4,000  Level Houston Center
11:33AM 31.7681 -89.1536 309° West 152 175 4,000  Level Houston Center
11:34AM 31.7956 -89.1903 311° West 151 174 4,000  Level Houston Center
11:35AM 31.8225 -89.2275 310° West 150 173 4,100  Climbing Houston Center
11:36AM 31.8547 -89.2725 310° West 150 173 4,100  Level Houston Center
11:37AM 31.8844 -89.3053 317° Northwest 158 182 4,100  Level Memphis Center
11:38AM 31.9142 -89.3467 310° West 158 182 4,100  Level Memphis Center
11:39AM 31.9436 -89.3806 316° Northwest 158 182 4,100  Level Memphis Center
11:40AM 31.9711 -89.4194 310° West 158 182 4,100  Level Memphis Center
11:41AM 31.9964 -89.4583 307° West 158 182 4,100  Level Memphis Center
11:42AM 32.0239 -89.4972 310° West 158 182 4,100  Level Memphis Center
11:43AM 32.0511 -89.5361 310° West 158 182 4,100  Level Memphis Center
11:44AM 32.0764 -89.5728 309° West 153 176 4,100  Level Memphis Center
11:45AM 32.1039 -89.6119 310° West 153 176 4,100  Level Memphis Center
11:46AM 32.1292 -89.6508 308° West 153 176 4,100 -120 Level Memphis Center
11:47AM 32.1567 -89.6922 308° West 153 176 3,900 -300 Descending Memphis Center
11:48AM 32.1819 -89.7364 304° West 158 182 3,500 -420 Descending Memphis Center
11:49AM 32.2072 -89.7781 306° West 158 182 3,100 -240 Descending Memphis Center
11:50AM 32.2344 -89.8194 308° West 158 182 3,100  Level Memphis Center
11:51AM 32.2597 -89.8586 307° West 158 182 3,100  Level Memphis Center
11:52AM 32.2847 -89.9003 305° West 153 176 3,100 -300 Level Memphis Center
11:53AM 32.3122 -89.9444 306° West 153 176 2,600 -480 Descending Memphis Center
11:54AM 32.3331 -89.9739 310° West 153 176 2,200 660 Descending Memphis Center
11:55AM 32.3625 -90.0228 305° West 153 176 4,000 900 Climbing Memphis Center
11:56AM 32.3878 -90.0669 304° West 153 176 4,000  Level Memphis Center